createdAt,value
2017-11-13T00:01:55.321Z,84.30
2017-11-13T00:04:23.624Z,84.00
2017-11-13T00:06:51.781Z,80.90
2017-11-13T00:09:20.700Z,83.00
2017-11-13T00:11:48.858Z,83.00
2017-11-13T00:14:17.138Z,85.00
2017-11-13T00:16:45.288Z,86.50
2017-11-13T00:19:13.435Z,89.20
2017-11-13T00:21:41.604Z,89.50
2017-11-13T00:24:09.823Z,87.70
2017-11-13T00:26:37.976Z,87.50
2017-11-13T00:29:06.192Z,86.90
2017-11-13T00:31:34.335Z,86.20
2017-11-13T00:34:06.226Z,83.30
2017-11-13T00:36:34.391Z,83.00
2017-11-13T00:39:02.565Z,83.90
2017-11-13T00:41:30.727Z,85.20
2017-11-13T00:43:59.743Z,85.30
2017-11-13T00:46:27.890Z,85.30
2017-11-13T00:48:56.099Z,87.90
2017-11-13T00:51:24.909Z,85.70
2017-11-13T00:53:54.069Z,86.30
2017-11-13T00:56:22.216Z,83.50
2017-11-13T00:58:50.680Z,85.20
2017-11-13T01:01:18.823Z,86.80
2017-11-13T01:03:49.028Z,84.90
2017-11-13T01:06:17.168Z,87.00
2017-11-13T01:08:46.092Z,86.80
2017-11-13T01:11:14.251Z,86.80
2017-11-13T01:13:46.213Z,85.00
2017-11-13T01:16:14.364Z,85.30
2017-11-13T01:18:42.568Z,87.50
2017-11-13T01:21:11.347Z,87.70
2017-11-13T01:23:40.575Z,84.30
2017-11-13T01:26:08.722Z,86.00
2017-11-13T01:28:36.871Z,85.60
2017-11-13T01:31:05.026Z,86.00
2017-11-13T01:33:33.255Z,86.90
2017-11-13T01:36:01.627Z,88.60
2017-11-13T01:38:29.786Z,86.40
2017-11-13T01:40:57.961Z,89.00
2017-11-13T01:43:26.876Z,87.60
2017-11-13T01:45:55.023Z,87.60
2017-11-13T01:48:23.188Z,89.50
2017-11-13T01:50:51.325Z,88.90
2017-11-13T01:53:19.458Z,89.20
2017-11-13T01:55:47.604Z,85.80
2017-11-13T01:58:15.765Z,87.00
2017-11-13T02:00:43.932Z,86.10
2017-11-13T02:03:12.087Z,88.40
2017-11-13T02:05:40.247Z,86.60
2017-11-13T02:08:08.437Z,88.10
2017-11-13T02:10:36.606Z,85.00
2017-11-13T02:13:04.762Z,84.50
2017-11-13T02:15:35.002Z,84.20
2017-11-13T02:18:03.171Z,85.80
2017-11-13T02:20:31.319Z,84.10
2017-11-13T02:22:59.480Z,83.80
2017-11-13T02:25:28.485Z,86.10
2017-11-13T02:27:56.741Z,86.10
2017-11-13T02:30:25.668Z,85.00
2017-11-13T02:32:53.824Z,85.00
2017-11-13T02:35:24.209Z,84.70
2017-11-13T02:37:52.373Z,84.70
2017-11-13T02:40:20.535Z,84.30
2017-11-13T02:42:48.702Z,84.00
2017-11-13T02:45:16.962Z,83.40
2017-11-13T02:47:45.140Z,84.30
2017-11-13T02:50:13.308Z,85.30
2017-11-13T02:52:41.455Z,85.40
2017-11-13T02:55:10.474Z,86.40
2017-11-13T02:57:38.631Z,86.20
2017-11-13T03:00:08.431Z,84.90
2017-11-13T03:02:37.353Z,86.00
2017-11-13T03:05:05.617Z,85.90
2017-11-13T03:07:33.778Z,84.40
2017-11-13T03:10:02.319Z,85.00
2017-11-13T03:12:30.471Z,86.30
2017-11-13T03:14:58.782Z,87.30
2017-11-13T03:17:26.931Z,84.80
2017-11-13T03:19:55.107Z,86.70
2017-11-13T03:22:23.258Z,85.20
2017-11-13T03:24:51.427Z,84.40
2017-11-13T03:27:19.596Z,85.40
2017-11-13T03:29:48.521Z,83.00
2017-11-13T03:32:16.878Z,83.10
2017-11-13T03:34:45.131Z,81.90
2017-11-13T03:37:13.299Z,83.00
2017-11-13T03:39:42.278Z,85.00
2017-11-13T03:42:10.455Z,84.90
2017-11-13T03:44:38.665Z,87.40
2017-11-13T03:47:06.824Z,83.20
2017-11-13T03:49:35.762Z,81.70
2017-11-13T03:52:04.376Z,81.70
2017-11-13T03:54:38.400Z,83.20
2017-11-13T03:57:07.315Z,83.30
2017-11-13T03:59:35.479Z,83.30
2017-11-13T04:02:04.135Z,82.50
2017-11-13T04:04:32.291Z,81.10
2017-11-13T04:07:00.451Z,82.00
2017-11-13T04:09:28.613Z,81.40
2017-11-13T04:11:56.782Z,82.80
2017-11-13T04:14:24.922Z,82.50
2017-11-13T04:16:53.083Z,80.80
2017-11-13T04:19:21.240Z,82.80
2017-11-13T04:21:49.394Z,83.90
2017-11-13T04:24:17.643Z,84.50
2017-11-13T04:26:45.790Z,83.30
2017-11-13T04:29:14.706Z,85.20
2017-11-13T04:31:42.859Z,85.10
2017-11-13T04:34:11.152Z,85.70
2017-11-13T04:36:39.330Z,86.00
2017-11-13T04:39:07.500Z,84.90
2017-11-13T04:41:36.559Z,82.50
2017-11-13T04:44:08.354Z,83.30
2017-11-13T04:46:36.608Z,84.10
2017-11-13T04:49:04.768Z,84.30
2017-11-13T04:51:32.924Z,83.00
2017-11-13T04:54:01.079Z,82.80
2017-11-13T04:56:29.225Z,82.70
2017-11-13T04:58:57.375Z,81.40
2017-11-13T05:01:25.555Z,84.10
2017-11-13T05:03:58.048Z,86.60
2017-11-13T05:06:26.968Z,85.90
2017-11-13T05:08:55.145Z,85.90
2017-11-13T05:11:23.288Z,86.20
2017-11-13T05:13:51.565Z,81.00
2017-11-13T05:16:19.721Z,84.30
2017-11-13T05:18:48.655Z,85.60
2017-11-13T05:21:17.033Z,85.60
2017-11-13T05:23:46.354Z,84.20
2017-11-13T05:26:14.513Z,83.00
2017-11-13T05:28:42.670Z,86.40
2017-11-13T05:31:10.829Z,85.80
2017-11-13T05:33:39.817Z,84.90
2017-11-13T05:36:07.966Z,84.90
2017-11-13T05:38:36.115Z,84.20
2017-11-13T05:41:04.282Z,86.60
2017-11-13T05:43:36.194Z,84.30
2017-11-13T05:46:04.340Z,85.70
2017-11-13T05:48:33.565Z,85.40
2017-11-13T05:51:01.720Z,86.90
2017-11-13T05:53:29.941Z,86.50
2017-11-13T05:55:58.083Z,83.30
2017-11-13T05:58:26.991Z,86.10
2017-11-13T06:00:55.148Z,86.00
2017-11-13T06:03:23.297Z,86.40
2017-11-13T06:05:51.457Z,86.40
2017-11-13T06:08:19.622Z,84.60
2017-11-13T06:10:47.782Z,87.50
2017-11-13T06:13:15.995Z,88.00
2017-11-13T06:15:44.155Z,86.60
2017-11-13T06:18:12.334Z,87.20
2017-11-13T06:20:41.141Z,87.80
2017-11-13T06:23:09.340Z,89.30
2017-11-13T06:25:37.484Z,86.40
2017-11-13T06:28:06.336Z,85.30
2017-11-13T06:30:34.826Z,88.60
2017-11-13T06:33:03.389Z,88.10
2017-11-13T06:35:31.548Z,85.00
2017-11-13T06:38:00.451Z,86.20
2017-11-13T06:40:28.867Z,86.30
2017-11-13T06:42:57.881Z,85.70
2017-11-13T06:45:26.204Z,84.30
2017-11-13T06:47:54.367Z,85.50
2017-11-13T06:50:22.526Z,82.70
2017-11-13T06:52:50.704Z,85.80
2017-11-13T06:55:19.108Z,83.50
2017-11-13T06:57:48.884Z,86.10
2017-11-13T07:00:18.578Z,83.10
2017-11-13T07:02:47.123Z,83.30
2017-11-13T07:05:20.398Z,85.10
2017-11-13T07:07:48.588Z,85.40
2017-11-13T07:10:16.972Z,85.40
2017-11-13T07:12:45.153Z,84.10
2017-11-13T07:15:16.886Z,83.30
2017-11-13T07:17:45.062Z,83.40
2017-11-13T07:20:13.937Z,82.60
2017-11-13T07:22:42.103Z,83.80
2017-11-13T07:25:17.947Z,85.50
2017-11-13T07:27:46.891Z,80.50
2017-11-13T07:30:16.909Z,80.50
2017-11-13T07:32:45.090Z,83.90
2017-11-13T07:35:14.198Z,83.60
2017-11-13T07:37:42.435Z,80.90
2017-11-13T07:40:10.589Z,79.40
2017-11-13T07:42:38.762Z,84.00
2017-11-13T07:45:13.175Z,81.50
2017-11-13T07:47:42.109Z,82.50
2017-11-13T07:50:11.141Z,82.40
2017-11-13T07:52:39.336Z,81.60
2017-11-13T07:55:08.159Z,82.90
2017-11-13T07:57:37.000Z,78.20
2017-11-13T08:00:05.194Z,79.50
2017-11-13T08:02:33.413Z,81.80
2017-11-13T08:05:02.613Z,82.30
2017-11-13T08:07:30.767Z,79.60
2017-11-13T08:09:58.920Z,80.80
2017-11-13T08:12:27.107Z,80.60
2017-11-13T08:15:00.322Z,79.50
2017-11-13T08:17:30.510Z,80.40
2017-11-13T08:19:58.664Z,78.50
2017-11-13T08:22:27.601Z,77.30
2017-11-13T08:24:55.766Z,77.30
2017-11-13T08:27:23.913Z,76.90
2017-11-13T08:29:52.833Z,77.20
2017-11-13T08:32:21.664Z,77.10
2017-11-13T08:34:50.899Z,73.80
2017-11-13T08:37:19.068Z,77.10
2017-11-13T08:39:47.972Z,75.60
2017-11-13T08:42:16.135Z,75.60
2017-11-13T08:44:44.421Z,76.00
2017-11-13T08:47:13.475Z,76.70
2017-11-13T08:49:41.640Z,75.40
2017-11-13T08:52:09.788Z,74.70
2017-11-13T08:54:38.945Z,75.60
2017-11-13T08:57:07.862Z,69.20
2017-11-13T08:59:36.023Z,69.30
2017-11-13T09:02:04.158Z,70.90
2017-11-13T09:04:32.295Z,69.30
2017-11-13T09:07:00.444Z,69.60
2017-11-13T09:09:29.278Z,72.00
2017-11-13T09:11:57.456Z,74.00
2017-11-13T09:14:29.433Z,72.20
2017-11-13T09:17:00.805Z,68.50
2017-11-13T09:19:28.991Z,68.70
2017-11-13T09:21:57.978Z,72.30
2017-11-13T09:24:26.891Z,71.90
2017-11-13T09:26:55.040Z,71.90
2017-11-13T09:29:23.948Z,70.60
2017-11-13T09:31:52.104Z,70.40
2017-11-13T09:34:20.423Z,70.10
2017-11-13T09:36:48.569Z,70.80
2017-11-13T09:39:16.714Z,71.60
2017-11-13T09:41:44.917Z,71.80
2017-11-13T09:44:14.156Z,73.60
2017-11-13T09:46:42.346Z,74.70
2017-11-13T09:49:11.423Z,77.10
2017-11-13T09:51:39.661Z,75.80
2017-11-13T09:54:07.890Z,71.00
2017-11-13T09:56:36.152Z,70.90
2017-11-13T09:59:04.350Z,72.10
2017-11-13T10:01:32.544Z,71.30
2017-11-13T10:04:04.965Z,68.10
2017-11-13T10:06:33.219Z,68.10
2017-11-13T10:09:01.435Z,63.40
2017-11-13T10:11:29.729Z,69.00
2017-11-13T10:13:57.980Z,68.30
2017-11-13T10:16:26.223Z,68.80
2017-11-13T10:18:54.475Z,67.50
2017-11-13T10:21:23.441Z,64.40
2017-11-13T10:23:51.749Z,64.40
2017-11-13T10:26:20.014Z,65.10
2017-11-13T10:28:48.210Z,62.30
2017-11-13T10:31:16.400Z,63.50
2017-11-13T10:33:44.589Z,64.60
2017-11-13T10:36:12.853Z,66.30
2017-11-13T10:38:41.404Z,66.20
2017-11-13T10:41:10.375Z,66.40
2017-11-13T10:43:38.626Z,66.10
2017-11-13T10:46:06.853Z,66.30
2017-11-13T10:48:35.065Z,66.60
2017-11-13T10:51:03.256Z,66.40
2017-11-13T10:53:39.300Z,65.20
2017-11-13T10:56:07.529Z,63.10
2017-11-13T10:58:35.755Z,60.10
2017-11-13T11:01:03.949Z,61.80
2017-11-13T11:03:32.145Z,61.70
2017-11-13T11:06:01.127Z,59.30
2017-11-13T11:08:29.318Z,59.20
2017-11-13T11:10:58.348Z,63.70
2017-11-13T11:13:27.122Z,63.50
2017-11-13T11:15:55.306Z,63.80
2017-11-13T11:18:23.515Z,61.70
2017-11-13T11:20:57.376Z,61.70
2017-11-13T11:23:41.494Z,60.00
2017-11-13T11:26:28.505Z,62.00
2017-11-13T11:29:02.246Z,61.50
2017-11-13T11:31:34.391Z,58.60
2017-11-13T11:34:13.365Z,60.50
2017-11-13T11:37:01.389Z,60.60
2017-11-13T11:39:29.596Z,61.20
2017-11-13T11:41:57.842Z,56.90
2017-11-13T11:44:26.697Z,58.60
2017-11-13T11:46:55.642Z,58.30
2017-11-13T11:49:29.395Z,58.30
2017-11-13T11:51:58.469Z,60.60
2017-11-13T11:54:29.191Z,60.60
2017-11-13T11:57:00.910Z,67.10
2017-11-13T11:59:29.178Z,66.20
2017-11-13T12:01:57.385Z,68.20
2017-11-13T12:04:25.595Z,72.10
2017-11-13T12:06:53.844Z,72.70
2017-11-13T12:09:22.074Z,76.90
2017-11-13T12:11:50.278Z,74.30
2017-11-13T12:14:19.555Z,78.40
2017-11-13T12:16:47.770Z,81.60
2017-11-13T12:19:16.028Z,82.30
2017-11-13T12:21:44.222Z,77.70
2017-11-13T12:24:12.442Z,78.00
2017-11-13T12:26:41.790Z,80.90
2017-11-13T12:29:09.992Z,80.90
2017-11-13T12:31:38.183Z,80.90
2017-11-13T12:34:10.827Z,76.90
2017-11-13T12:36:42.990Z,76.90
2017-11-13T12:39:11.215Z,79.40
2017-11-13T12:41:39.554Z,79.40
2017-11-13T12:44:07.822Z,76.50
2017-11-13T12:46:36.044Z,77.20
2017-11-13T12:49:04.317Z,75.80
2017-11-13T12:51:32.520Z,75.40
2017-11-13T12:54:00.786Z,77.60
2017-11-13T12:56:29.037Z,73.70
2017-11-13T12:58:58.042Z,70.60
2017-11-13T13:01:26.258Z,70.10
2017-11-13T13:03:54.458Z,72.00
2017-11-13T13:06:22.677Z,70.90
2017-11-13T13:08:52.079Z,68.50
2017-11-13T13:11:20.439Z,70.80
2017-11-13T13:13:52.288Z,67.00
2017-11-13T13:16:27.060Z,69.50
2017-11-13T13:18:55.281Z,71.10
2017-11-13T13:21:23.479Z,67.00
2017-11-13T13:23:53.766Z,71.10
2017-11-13T13:26:22.002Z,71.10
2017-11-13T13:28:50.263Z,74.10
2017-11-13T13:31:20.499Z,72.80
2017-11-13T13:33:50.189Z,72.80
2017-11-13T13:36:18.550Z,75.90
2017-11-13T13:38:46.779Z,78.00
2017-11-13T13:41:15.010Z,76.00
2017-11-13T13:43:45.304Z,69.00
2017-11-13T13:46:13.612Z,70.00
2017-11-13T13:48:42.850Z,68.10
2017-11-13T13:51:11.096Z,68.10
2017-11-13T13:53:40.240Z,69.60
2017-11-13T13:56:08.453Z,70.00
2017-11-13T13:58:36.931Z,70.30
2017-11-13T14:01:05.141Z,70.10
2017-11-13T14:03:34.895Z,69.00
2017-11-13T14:06:03.468Z,65.40
2017-11-13T14:08:32.132Z,63.60
2017-11-13T14:11:02.079Z,67.20
2017-11-13T14:13:30.344Z,61.10
2017-11-13T14:15:58.550Z,62.60
2017-11-13T14:18:26.746Z,57.30
2017-11-13T14:20:55.767Z,55.10
2017-11-13T14:23:27.560Z,55.00
2017-11-13T14:25:57.612Z,55.40
2017-11-13T14:28:26.964Z,57.80
2017-11-13T14:30:55.650Z,57.90
2017-11-13T14:33:24.235Z,55.60
2017-11-13T14:35:54.606Z,57.70
2017-11-13T14:38:22.898Z,55.70
2017-11-13T14:40:51.112Z,55.50
2017-11-13T14:43:19.358Z,60.00
2017-11-13T14:45:49.712Z,56.80
2017-11-13T14:48:18.685Z,58.80
2017-11-13T14:50:47.131Z,58.20
2017-11-13T14:53:16.220Z,60.50
2017-11-13T14:55:44.428Z,59.90
2017-11-13T14:58:13.104Z,57.60
2017-11-13T15:00:41.380Z,60.40
2017-11-13T15:03:09.586Z,59.00
2017-11-13T15:05:38.033Z,59.50
2017-11-13T15:08:06.225Z,57.00
2017-11-13T15:10:34.505Z,61.90
2017-11-13T15:13:02.668Z,60.40
2017-11-13T15:15:32.500Z,62.00
2017-11-13T15:18:00.645Z,60.00
2017-11-13T15:20:31.128Z,60.40
2017-11-13T15:22:59.303Z,63.60
2017-11-13T15:25:27.673Z,65.80
2017-11-13T15:27:55.812Z,64.10
2017-11-13T15:30:23.976Z,68.70
2017-11-13T15:32:52.907Z,71.50
2017-11-13T15:35:21.377Z,71.50
2017-11-13T15:37:49.544Z,72.90
2017-11-13T15:40:17.709Z,73.80
2017-11-13T15:42:45.875Z,73.70
2017-11-13T15:45:14.154Z,70.60
2017-11-13T15:47:42.305Z,74.40
2017-11-13T15:50:10.478Z,75.00
2017-11-13T15:52:38.637Z,75.20
2017-11-13T15:55:06.881Z,75.70
2017-11-13T15:57:35.039Z,76.80
2017-11-13T16:00:03.225Z,76.70
2017-11-13T16:02:31.377Z,78.30
2017-11-13T16:05:03.229Z,78.90
2017-11-13T16:07:31.389Z,81.40
2017-11-13T16:10:00.421Z,81.90
2017-11-13T16:12:28.580Z,81.90
2017-11-13T16:14:56.749Z,80.10
2017-11-13T16:17:25.775Z,77.20
2017-11-13T16:19:53.912Z,79.20
2017-11-13T16:22:22.463Z,79.00
2017-11-13T16:24:50.675Z,79.00
2017-11-13T16:27:18.829Z,81.30
2017-11-13T16:29:46.974Z,83.30
2017-11-13T16:32:16.388Z,82.50
2017-11-13T16:34:44.731Z,83.10
2017-11-13T16:37:12.883Z,82.30
2017-11-13T16:39:41.078Z,81.40
2017-11-13T16:42:09.315Z,82.20
2017-11-13T16:44:37.592Z,83.30
2017-11-13T16:47:05.797Z,83.30
2017-11-13T16:49:33.953Z,83.50
2017-11-13T16:52:02.123Z,84.10
2017-11-13T16:54:30.403Z,84.00
2017-11-13T16:56:58.573Z,84.70
2017-11-13T16:59:27.512Z,88.40
2017-11-13T17:01:55.663Z,88.40
2017-11-13T17:04:23.911Z,87.90
2017-11-13T17:06:52.076Z,89.60
2017-11-13T17:09:21.001Z,85.20
2017-11-13T17:11:49.135Z,85.20
2017-11-13T17:14:17.285Z,87.60
2017-11-13T17:16:45.428Z,88.40
2017-11-13T17:19:13.580Z,88.10
2017-11-13T17:21:44.601Z,87.90
2017-11-13T17:24:13.610Z,89.40
2017-11-13T17:26:43.402Z,90.50
2017-11-13T17:29:11.574Z,90.40
2017-11-13T17:31:40.506Z,91.30
2017-11-13T17:34:08.750Z,91.20
2017-11-13T17:36:37.663Z,91.50
2017-11-13T17:39:05.810Z,91.50
2017-11-13T17:41:34.710Z,90.80
2017-11-13T17:44:04.756Z,90.70
2017-11-13T17:46:33.818Z,90.60
2017-11-13T17:49:01.998Z,91.20
2017-11-13T17:51:31.118Z,91.00
2017-11-13T17:54:01.307Z,91.40
2017-11-13T17:56:30.330Z,90.80
2017-11-13T17:58:58.500Z,90.70
2017-11-13T18:01:26.663Z,91.40
2017-11-13T18:03:56.600Z,92.20
2017-11-13T18:06:24.756Z,92.20
2017-11-13T18:08:52.921Z,91.50
2017-11-13T18:11:21.926Z,91.50
2017-11-13T18:13:50.702Z,91.50
2017-11-13T18:16:19.857Z,91.90
2017-11-13T18:18:48.014Z,91.30
2017-11-13T18:21:18.031Z,88.60
2017-11-13T18:23:46.265Z,88.50
2017-11-13T18:26:15.176Z,88.20
2017-11-13T18:28:45.127Z,88.20
2017-11-13T18:31:13.524Z,87.70
2017-11-13T18:33:41.736Z,88.20
2017-11-13T18:36:09.908Z,89.70
2017-11-13T18:38:38.459Z,88.20
2017-11-13T18:41:06.630Z,88.30
2017-11-13T18:43:35.969Z,86.90
2017-11-13T18:46:04.121Z,86.60
2017-11-13T18:48:32.294Z,83.30
2017-11-13T18:51:01.006Z,84.50
2017-11-13T18:53:30.204Z,85.70
2017-11-13T18:55:58.346Z,87.60
2017-11-13T18:58:26.524Z,88.20
2017-11-13T19:00:55.545Z,86.10
2017-11-13T19:03:27.864Z,86.10
2017-11-13T19:05:56.051Z,86.70
2017-11-13T19:08:26.211Z,88.00
2017-11-13T19:10:55.143Z,88.40
2017-11-13T19:13:24.427Z,88.40
2017-11-13T19:15:53.018Z,87.10
2017-11-13T19:18:21.199Z,86.70
2017-11-13T19:20:49.359Z,85.90
2017-11-13T19:23:17.528Z,86.90
2017-11-13T19:25:45.773Z,86.10
2017-11-13T19:28:14.707Z,88.70
2017-11-13T19:31:19.329Z,88.80
2017-11-13T19:33:51.032Z,88.40
2017-11-13T19:36:19.344Z,88.50
2017-11-13T19:42:02.075Z,89.00
2017-11-13T19:44:31.867Z,88.50
2017-11-13T19:50:36.308Z,88.90
2017-11-13T19:53:05.369Z,87.10
2017-11-13T19:55:33.579Z,88.00
2017-11-13T19:58:02.497Z,89.30
2017-11-13T20:00:30.808Z,89.40
2017-11-13T20:02:58.995Z,90.10
2017-11-13T20:11:34.561Z,90.30
2017-11-13T20:14:04.000Z,90.30
2017-11-13T20:16:32.520Z,90.80
2017-11-13T20:19:01.000Z,90.90
2017-11-13T20:21:29.485Z,91.10
2017-11-13T20:23:57.950Z,91.20
2017-11-13T20:26:26.385Z,91.40
2017-11-13T20:28:55.431Z,91.00
2017-11-13T20:31:24.427Z,90.70
2017-11-13T20:33:52.715Z,90.60
2017-11-13T20:36:21.281Z,90.30
2017-11-13T20:38:49.502Z,90.70
2017-11-13T20:41:17.683Z,90.80
2017-11-13T20:43:46.697Z,90.70
2017-11-13T20:46:15.392Z,90.40
2017-11-13T20:48:43.567Z,90.40
2017-11-13T20:51:11.759Z,90.50
2017-11-13T20:53:43.319Z,89.70
2017-11-13T20:56:11.495Z,89.80
2017-11-13T20:58:39.712Z,90.40
2017-11-13T21:01:07.898Z,90.60
2017-11-13T21:03:36.049Z,90.70
2017-11-13T21:06:04.237Z,91.10
2017-11-13T21:08:32.459Z,91.20
2017-11-13T21:11:00.638Z,91.40
2017-11-13T21:13:28.946Z,91.90
2017-11-13T21:15:57.110Z,91.90
2017-11-13T21:18:25.364Z,91.90
2017-11-13T21:20:53.543Z,91.90
2017-11-13T21:23:27.597Z,91.60
2017-11-13T21:25:55.845Z,91.90
2017-11-13T21:28:24.018Z,91.90
2017-11-13T21:30:52.180Z,91.70
2017-11-13T21:33:20.457Z,91.30
2017-11-13T21:35:49.929Z,90.80
2017-11-13T21:38:18.145Z,89.90
2017-11-13T21:40:46.370Z,90.80
2017-11-13T21:43:14.541Z,90.80
2017-11-13T21:45:42.681Z,91.00
2017-11-13T21:48:10.846Z,90.90
2017-11-13T21:50:39.012Z,90.70
2017-11-13T21:53:07.434Z,91.10
2017-11-13T21:55:35.603Z,91.70
2017-11-13T21:58:03.759Z,91.80
2017-11-13T22:00:31.912Z,92.10
2017-11-13T22:03:41.225Z,91.90
2017-11-13T22:06:09.400Z,91.20
2017-11-13T22:08:37.554Z,91.50
2017-11-13T22:11:07.974Z,91.50
2017-11-13T22:13:36.915Z,91.50
2017-11-13T22:16:05.066Z,92.10
2017-11-13T22:18:33.249Z,92.40
2017-11-13T22:21:02.154Z,92.60
2017-11-13T22:23:30.442Z,92.80
2017-11-13T22:25:59.200Z,93.10
2017-11-13T22:28:27.915Z,92.70
2017-11-13T22:31:20.128Z,92.40
2017-11-13T22:33:49.400Z,92.80
2017-11-13T22:36:18.159Z,92.80
2017-11-13T22:38:46.320Z,91.30
2017-11-13T22:41:14.481Z,90.00
2017-11-13T22:43:43.164Z,90.00
2017-11-13T22:46:11.338Z,90.00
2017-11-13T22:48:39.570Z,90.60
2017-11-13T22:51:09.520Z,91.00
2017-11-13T22:53:37.815Z,91.70
2017-11-13T22:56:05.977Z,92.20
2017-11-13T22:58:34.178Z,92.50
2017-11-13T23:01:03.067Z,92.10
2017-11-13T23:03:31.308Z,92.00
2017-11-13T23:05:59.470Z,92.10
2017-11-13T23:08:28.664Z,92.10
2017-11-13T23:10:56.826Z,91.40
2017-11-13T23:13:26.081Z,91.50
2017-11-13T23:15:55.137Z,91.50
2017-11-13T23:18:23.300Z,91.30
2017-11-13T23:20:51.472Z,90.90
2017-11-13T23:23:19.654Z,90.60
2017-11-13T23:25:47.816Z,90.80
2017-11-13T23:28:16.020Z,91.00
2017-11-13T23:30:44.195Z,91.00
2017-11-13T23:33:12.441Z,89.90
2017-11-13T23:35:40.616Z,87.20
2017-11-13T23:38:09.655Z,85.20
2017-11-13T23:40:38.287Z,87.20
2017-11-13T23:43:06.467Z,89.20
2017-11-13T23:45:34.630Z,88.60
2017-11-13T23:48:02.809Z,87.90
2017-11-13T23:50:30.971Z,90.00
2017-11-13T23:52:59.148Z,88.90
2017-11-13T23:55:27.340Z,87.60
2017-11-13T23:57:55.503Z,89.10
